sensor_id;sensor_type;location;lat;lon;timestamp;P1;durP1;ratioP1;P2;durP2;ratioP2
7444;SDS011;3764;48.126;11.594;2023-05-07T00:01:39;9.73;;;8.73;;
7444;SDS011;3764;48.126;11.594;2023-05-07T00:04:07;9.95;;;8.95;;
7444;SDS011;3764;48.126;11.594;2023-05-07T00:06:34;13.52;;;8.48;;
7444;SDS011;3764;48.126;11.594;2023-05-07T00:09:02;10.40;;;8.70;;
7444;SDS011;3764;48.126;11.594;2023-05-07T00:11:29;11.75;;;8.85;;
7444;SDS011;3764;48.126;11.594;2023-05-07T00:13:56;10.30;;;9.00;;
7444;SDS011;3764;48.126;11.594;2023-05-07T00:16:24;9.43;;;8.38;;
7444;SDS011;3764;48.126;11.594;2023-05-07T00:18:51;9.85;;;8.88;;
7444;SDS011;3764;48.126;11.594;2023-05-07T00:21:20;9.30;;;8.40;;
7444;SDS011;3764;48.126;11.594;2023-05-07T00:23:47;9.85;;;8.75;;
7444;SDS011;3764;48.126;11.594;2023-05-07T00:26:14;10.90;;;9.18;;
7444;SDS011;3764;48.126;11.594;2023-05-07T00:28:42;9.38;;;8.32;;
7444;SDS011;3764;48.126;11.594;2023-05-07T00:31:09;8.05;;;7.35;;
7444;SDS011;3764;48.126;11.594;2023-05-07T00:33:37;8.55;;;7.75;;
7444;SDS011;3764;48.126;11.594;2023-05-07T00:36:05;9.25;;;8.02;;
7444;SDS011;3764;48.126;11.594;2023-05-07T00:38:33;8.32;;;7.50;;
7444;SDS011;3764;48.126;11.594;2023-05-07T00:41:00;8.57;;;7.75;;
7444;SDS011;3764;48.126;11.594;2023-05-07T00:43:28;8.60;;;7.82;;
7444;SDS011;3764;48.126;11.594;2023-05-07T00:45:55;10.60;;;8.13;;
7444;SDS011;3764;48.126;11.594;2023-05-07T00:48:22;10.10;;;8.60;;
7444;SDS011;3764;48.126;11.594;2023-05-07T00:50:50;8.80;;;7.63;;
7444;SDS011;3764;48.126;11.594;2023-05-07T00:53:17;9.45;;;8.52;;
7444;SDS011;3764;48.126;11.594;2023-05-07T00:55:46;8.20;;;7.30;;
7444;SDS011;3764;48.126;11.594;2023-05-07T00:58:13;7.80;;;7.00;;
7444;SDS011;3764;48.126;11.594;2023-05-07T01:00:41;9.18;;;8.27;;
7444;SDS011;3764;48.126;11.594;2023-05-07T01:03:08;9.30;;;8.18;;
7444;SDS011;3764;48.126;11.594;2023-05-07T01:05:35;9.93;;;7.95;;
7444;SDS011;3764;48.126;11.594;2023-05-07T01:08:02;8.63;;;7.82;;
7444;SDS011;3764;48.126;11.594;2023-05-07T01:10:31;9.90;;;8.10;;
7444;SDS011;3764;48.126;11.594;2023-05-07T01:12:59;8.45;;;7.65;;
7444;SDS011;3764;48.126;11.594;2023-05-07T01:15:28;8.30;;;7.50;;
7444;SDS011;3764;48.126;11.594;2023-05-07T01:17:55;7.90;;;7.10;;
7444;SDS011;3764;48.126;11.594;2023-05-07T01:20:22;8.65;;;7.63;;
7444;SDS011;3764;48.126;11.594;2023-05-07T01:22:51;8.15;;;7.35;;
7444;SDS011;3764;48.126;11.594;2023-05-07T01:25:19;9.50;;;7.40;;
7444;SDS011;3764;48.126;11.594;2023-05-07T01:27:46;8.57;;;7.78;;
7444;SDS011;3764;48.126;11.594;2023-05-07T01:30:13;8.73;;;7.70;;
7444;SDS011;3764;48.126;11.594;2023-05-07T01:32:42;9.10;;;8.30;;
7444;SDS011;3764;48.126;11.594;2023-05-07T01:35:12;7.60;;;6.78;;
7444;SDS011;3764;48.126;11.594;2023-05-07T01:37:43;8.45;;;7.65;;
7444;SDS011;3764;48.126;11.594;2023-05-07T01:40:13;8.68;;;7.88;;
7444;SDS011;3764;48.126;11.594;2023-05-07T01:42:41;8.05;;;7.22;;
7444;SDS011;3764;48.126;11.594;2023-05-07T01:45:10;7.35;;;6.75;;
7444;SDS011;3764;48.126;11.594;2023-05-07T01:47:37;8.68;;;7.80;;
7444;SDS011;3764;48.126;11.594;2023-05-07T01:50:05;7.50;;;6.80;;
7444;SDS011;3764;48.126;11.594;2023-05-07T01:52:35;8.60;;;7.70;;
7444;SDS011;3764;48.126;11.594;2023-05-07T01:55:04;8.73;;;7.82;;
7444;SDS011;3764;48.126;11.594;2023-05-07T01:57:33;12.25;;;8.05;;
7444;SDS011;3764;48.126;11.594;2023-05-07T02:00:00;7.80;;;7.00;;
7444;SDS011;3764;48.126;11.594;2023-05-07T02:02:31;9.35;;;8.23;;
7444;SDS011;3764;48.126;11.594;2023-05-07T02:04:59;8.85;;;7.95;;
7444;SDS011;3764;48.126;11.594;2023-05-07T02:07:26;8.00;;;7.30;;
7444;SDS011;3764;48.126;11.594;2023-05-07T02:09:53;8.60;;;7.80;;
7444;SDS011;3764;48.126;11.594;2023-05-07T02:12:21;8.43;;;7.57;;
7444;SDS011;3764;48.126;11.594;2023-05-07T02:14:50;9.80;;;7.43;;
7444;SDS011;3764;48.126;11.594;2023-05-07T02:17:17;13.15;;;7.50;;
7444;SDS011;3764;48.126;11.594;2023-05-07T02:19:44;8.73;;;7.82;;
7444;SDS011;3764;48.126;11.594;2023-05-07T02:22:11;12.05;;;8.10;;
7444;SDS011;3764;48.126;11.594;2023-05-07T02:24:38;9.57;;;7.60;;
7444;SDS011;3764;48.126;11.594;2023-05-07T02:27:05;8.80;;;7.90;;
7444;SDS011;3764;48.126;11.594;2023-05-07T02:29:32;8.82;;;7.93;;
7444;SDS011;3764;48.126;11.594;2023-05-07T02:32:00;8.20;;;7.50;;
7444;SDS011;3764;48.126;11.594;2023-05-07T02:34:28;8.50;;;7.70;;
7444;SDS011;3764;48.126;11.594;2023-05-07T02:36:55;9.57;;;8.68;;
7444;SDS011;3764;48.126;11.594;2023-05-07T02:39:22;9.30;;;8.00;;
7444;SDS011;3764;48.126;11.594;2023-05-07T02:41:49;8.65;;;7.85;;
7444;SDS011;3764;48.126;11.594;2023-05-07T02:44:16;9.02;;;7.88;;
7444;SDS011;3764;48.126;11.594;2023-05-07T02:46:43;7.38;;;6.68;;
7444;SDS011;3764;48.126;11.594;2023-05-07T02:49:11;9.07;;;8.10;;
7444;SDS011;3764;48.126;11.594;2023-05-07T02:51:39;8.15;;;7.40;;
7444;SDS011;3764;48.126;11.594;2023-05-07T02:54:06;8.35;;;7.50;;
7444;SDS011;3764;48.126;11.594;2023-05-07T02:56:33;7.95;;;7.20;;
7444;SDS011;3764;48.126;11.594;2023-05-07T02:59:00;8.77;;;7.97;;
7444;SDS011;3764;48.126;11.594;2023-05-07T03:01:27;8.07;;;6.97;;
7444;SDS011;3764;48.126;11.594;2023-05-07T03:03:54;7.22;;;6.32;;
7444;SDS011;3764;48.126;11.594;2023-05-07T03:06:23;6.88;;;6.25;;
7444;SDS011;3764;48.126;11.594;2023-05-07T03:08:50;9.10;;;7.40;;
7444;SDS011;3764;48.126;11.594;2023-05-07T03:11:17;8.30;;;7.40;;
7444;SDS011;3764;48.126;11.594;2023-05-07T03:13:44;7.22;;;6.53;;
7444;SDS011;3764;48.126;11.594;2023-05-07T03:16:11;9.65;;;7.47;;
7444;SDS011;3764;48.126;11.594;2023-05-07T03:18:39;6.85;;;6.22;;
7444;SDS011;3764;48.126;11.594;2023-05-07T03:21:06;7.95;;;6.63;;
7444;SDS011;3764;48.126;11.594;2023-05-07T03:23:34;7.00;;;6.35;;
7444;SDS011;3764;48.126;11.594;2023-05-07T03:26:01;6.95;;;6.25;;
7444;SDS011;3764;48.126;11.594;2023-05-07T03:28:28;7.32;;;6.55;;
7444;SDS011;3764;48.126;11.594;2023-05-07T03:30:55;7.15;;;6.45;;
7444;SDS011;3764;48.126;11.594;2023-05-07T03:33:22;7.47;;;6.18;;
7444;SDS011;3764;48.126;11.594;2023-05-07T03:35:49;6.32;;;5.82;;
7444;SDS011;3764;48.126;11.594;2023-05-07T03:38:16;9.75;;;7.40;;
7444;SDS011;3764;48.126;11.594;2023-05-07T03:40:45;6.32;;;5.78;;
7444;SDS011;3764;48.126;11.594;2023-05-07T03:43:12;7.47;;;6.15;;
7444;SDS011;3764;48.126;11.594;2023-05-07T03:45:39;7.45;;;5.75;;
7444;SDS011;3764;48.126;11.594;2023-05-07T03:48:06;6.93;;;6.22;;
7444;SDS011;3764;48.126;11.594;2023-05-07T03:50:33;6.25;;;4.85;;
7444;SDS011;3764;48.126;11.594;2023-05-07T03:53:00;7.07;;;6.25;;
7444;SDS011;3764;48.126;11.594;2023-05-07T03:55:27;6.97;;;6.38;;
7444;SDS011;3764;48.126;11.594;2023-05-07T03:57:56;7.18;;;6.57;;
7444;SDS011;3764;48.126;11.594;2023-05-07T04:00:23;6.97;;;6.38;;
7444;SDS011;3764;48.126;11.594;2023-05-07T04:02:50;7.75;;;7.05;;
7444;SDS011;3764;48.126;11.594;2023-05-07T04:05:17;6.65;;;5.95;;
7444;SDS011;3764;48.126;11.594;2023-05-07T04:07:44;7.93;;;5.60;;
7444;SDS011;3764;48.126;11.594;2023-05-07T04:10:12;7.50;;;6.35;;
7444;SDS011;3764;48.126;11.594;2023-05-07T04:12:40;6.30;;;5.80;;
7444;SDS011;3764;48.126;11.594;2023-05-07T04:15:09;6.70;;;5.68;;
7444;SDS011;3764;48.126;11.594;2023-05-07T04:17:36;8.82;;;6.10;;
7444;SDS011;3764;48.126;11.594;2023-05-07T04:20:04;8.32;;;5.93;;
7444;SDS011;3764;48.126;11.594;2023-05-07T04:22:32;6.75;;;6.05;;
7444;SDS011;3764;48.126;11.594;2023-05-07T04:24:59;7.57;;;5.50;;
7444;SDS011;3764;48.126;11.594;2023-05-07T04:27:27;6.78;;;6.07;;
7444;SDS011;3764;48.126;11.594;2023-05-07T04:29:54;7.05;;;6.07;;
7444;SDS011;3764;48.126;11.594;2023-05-07T04:32:23;7.40;;;6.05;;
7444;SDS011;3764;48.126;11.594;2023-05-07T04:34:51;8.02;;;7.13;;
7444;SDS011;3764;48.126;11.594;2023-05-07T04:37:18;6.45;;;5.85;;
7444;SDS011;3764;48.126;11.594;2023-05-07T04:39:45;6.63;;;5.65;;
7444;SDS011;3764;48.126;11.594;2023-05-07T04:42:14;7.13;;;6.50;;
7444;SDS011;3764;48.126;11.594;2023-05-07T04:44:41;6.90;;;5.93;;
7444;SDS011;3764;48.126;11.594;2023-05-07T04:47:08;6.65;;;5.70;;
7444;SDS011;3764;48.126;11.594;2023-05-07T04:49:37;10.52;;;6.40;;
7444;SDS011;3764;48.126;11.594;2023-05-07T04:52:04;6.88;;;6.18;;
7444;SDS011;3764;48.126;11.594;2023-05-07T04:54:31;6.20;;;5.60;;
7444;SDS011;3764;48.126;11.594;2023-05-07T04:56:59;7.15;;;6.05;;
7444;SDS011;3764;48.126;11.594;2023-05-07T04:59:26;6.45;;;5.95;;
7444;SDS011;3764;48.126;11.594;2023-05-07T05:01:53;7.05;;;6.35;;
7444;SDS011;3764;48.126;11.594;2023-05-07T05:04:20;7.03;;;6.13;;
7444;SDS011;3764;48.126;11.594;2023-05-07T05:06:48;9.80;;;6.65;;
7444;SDS011;3764;48.126;11.594;2023-05-07T05:09:15;6.75;;;6.05;;
7444;SDS011;3764;48.126;11.594;2023-05-07T05:11:43;6.38;;;5.60;;
7444;SDS011;3764;48.126;11.594;2023-05-07T05:14:10;9.32;;;5.85;;
7444;SDS011;3764;48.126;11.594;2023-05-07T05:16:37;6.45;;;5.85;;
7444;SDS011;3764;48.126;11.594;2023-05-07T05:19:04;6.45;;;5.95;;
7444;SDS011;3764;48.126;11.594;2023-05-07T05:21:31;6.28;;;5.68;;
7444;SDS011;3764;48.126;11.594;2023-05-07T05:24:00;8.88;;;6.75;;
7444;SDS011;3764;48.126;11.594;2023-05-07T05:26:27;6.82;;;6.15;;
7444;SDS011;3764;48.126;11.594;2023-05-07T05:28:54;6.13;;;5.55;;
7444;SDS011;3764;48.126;11.594;2023-05-07T05:31:21;8.70;;;6.70;;
7444;SDS011;3764;48.126;11.594;2023-05-07T05:33:48;6.75;;;5.60;;
7444;SDS011;3764;48.126;11.594;2023-05-07T05:36:15;6.15;;;5.28;;
7444;SDS011;3764;48.126;11.594;2023-05-07T05:38:43;7.20;;;5.50;;
7444;SDS011;3764;48.126;11.594;2023-05-07T05:41:11;6.32;;;5.72;;
7444;SDS011;3764;48.126;11.594;2023-05-07T05:43:38;7.65;;;5.78;;
7444;SDS011;3764;48.126;11.594;2023-05-07T05:46:05;6.25;;;5.70;;
7444;SDS011;3764;48.126;11.594;2023-05-07T05:48:34;6.93;;;6.22;;
7444;SDS011;3764;48.126;11.594;2023-05-07T05:51:01;7.20;;;6.50;;
7444;SDS011;3764;48.126;11.594;2023-05-07T05:53:28;7.00;;;6.22;;
7444;SDS011;3764;48.126;11.594;2023-05-07T05:55:55;6.63;;;5.88;;
7444;SDS011;3764;48.126;11.594;2023-05-07T05:58:23;6.82;;;6.13;;
7444;SDS011;3764;48.126;11.594;2023-05-07T06:00:50;6.07;;;5.45;;
7444;SDS011;3764;48.126;11.594;2023-05-07T06:03:18;6.43;;;5.88;;
7444;SDS011;3764;48.126;11.594;2023-05-07T06:05:45;5.60;;;5.10;;
7444;SDS011;3764;48.126;11.594;2023-05-07T06:08:12;6.35;;;5.75;;
7444;SDS011;3764;48.126;11.594;2023-05-07T06:10:40;6.43;;;5.82;;
7444;SDS011;3764;48.126;11.594;2023-05-07T06:13:07;5.63;;;5.03;;
7444;SDS011;3764;48.126;11.594;2023-05-07T06:15:35;6.03;;;5.53;;
7444;SDS011;3764;48.126;11.594;2023-05-07T06:18:03;9.07;;;6.53;;
7444;SDS011;3764;48.126;11.594;2023-05-07T06:20:30;8.10;;;5.80;;
7444;SDS011;3764;48.126;11.594;2023-05-07T06:22:57;5.40;;;4.93;;
7444;SDS011;3764;48.126;11.594;2023-05-07T06:25:24;5.72;;;5.13;;
7444;SDS011;3764;48.126;11.594;2023-05-07T06:27:51;6.30;;;5.80;;
7444;SDS011;3764;48.126;11.594;2023-05-07T06:30:18;5.90;;;5.38;;
7444;SDS011;3764;48.126;11.594;2023-05-07T06:32:47;6.35;;;5.32;;
7444;SDS011;3764;48.126;11.594;2023-05-07T06:35:14;5.03;;;4.57;;
7444;SDS011;3764;48.126;11.594;2023-05-07T06:37:41;6.95;;;5.35;;
7444;SDS011;3764;48.126;11.594;2023-05-07T06:40:09;5.72;;;5.22;;
7444;SDS011;3764;48.126;11.594;2023-05-07T06:42:36;5.93;;;5.35;;
7444;SDS011;3764;48.126;11.594;2023-05-07T06:45:04;6.18;;;5.57;;
7444;SDS011;3764;48.126;11.594;2023-05-07T06:47:32;8.73;;;5.20;;
7444;SDS011;3764;48.126;11.594;2023-05-07T06:50:00;6.13;;;5.45;;
7444;SDS011;3764;48.126;11.594;2023-05-07T06:52:27;6.93;;;5.43;;
7444;SDS011;3764;48.126;11.594;2023-05-07T06:54:54;7.13;;;5.53;;
7444;SDS011;3764;48.126;11.594;2023-05-07T06:57:21;4.95;;;4.55;;
7444;SDS011;3764;48.126;11.594;2023-05-07T06:59:48;7.40;;;4.53;;
7444;SDS011;3764;48.126;11.594;2023-05-07T07:02:15;5.97;;;5.40;;
7444;SDS011;3764;48.126;11.594;2023-05-07T07:04:42;5.60;;;5.10;;
7444;SDS011;3764;48.126;11.594;2023-05-07T07:07:11;5.78;;;5.28;;
7444;SDS011;3764;48.126;11.594;2023-05-07T07:09:38;5.88;;;5.35;;
7444;SDS011;3764;48.126;11.594;2023-05-07T07:12:05;6.00;;;5.40;;
7444;SDS011;3764;48.126;11.594;2023-05-07T07:14:33;4.90;;;4.40;;
7444;SDS011;3764;48.126;11.594;2023-05-07T07:17:00;5.60;;;4.45;;
7444;SDS011;3764;48.126;11.594;2023-05-07T07:19:27;5.00;;;4.50;;
7444;SDS011;3764;48.126;11.594;2023-05-07T07:21:54;6.18;;;4.55;;
7444;SDS011;3764;48.126;11.594;2023-05-07T07:24:22;5.43;;;4.75;;
7444;SDS011;3764;48.126;11.594;2023-05-07T07:26:49;7.47;;;4.30;;
7444;SDS011;3764;48.126;11.594;2023-05-07T07:29:16;5.70;;;4.60;;
7444;SDS011;3764;48.126;11.594;2023-05-07T07:31:44;5.50;;;5.00;;
7444;SDS011;3764;48.126;11.594;2023-05-07T07:34:11;5.25;;;4.82;;
7444;SDS011;3764;48.126;11.594;2023-05-07T07:36:38;6.93;;;4.60;;
7444;SDS011;3764;48.126;11.594;2023-05-07T07:39:05;7.38;;;4.82;;
7444;SDS011;3764;48.126;11.594;2023-05-07T07:41:33;3.83;;;3.45;;
7444;SDS011;3764;48.126;11.594;2023-05-07T07:44:02;6.45;;;3.80;;
7444;SDS011;3764;48.126;11.594;2023-05-07T07:46:32;6.18;;;4.90;;
7444;SDS011;3764;48.126;11.594;2023-05-07T07:48:59;4.07;;;3.70;;
7444;SDS011;3764;48.126;11.594;2023-05-07T07:51:26;6.97;;;5.72;;
7444;SDS011;3764;48.126;11.594;2023-05-07T07:53:54;5.70;;;5.00;;
7444;SDS011;3764;48.126;11.594;2023-05-07T07:56:22;6.25;;;4.60;;
7444;SDS011;3764;48.126;11.594;2023-05-07T07:58:51;4.60;;;4.20;;
7444;SDS011;3764;48.126;11.594;2023-05-07T08:01:18;4.68;;;4.10;;
7444;SDS011;3764;48.126;11.594;2023-05-07T08:03:45;5.80;;;4.22;;
7444;SDS011;3764;48.126;11.594;2023-05-07T08:06:12;6.72;;;5.97;;
7444;SDS011;3764;48.126;11.594;2023-05-07T08:08:39;6.13;;;5.53;;
7444;SDS011;3764;48.126;11.594;2023-05-07T08:11:06;5.60;;;5.10;;
7444;SDS011;3764;48.126;11.594;2023-05-07T08:13:34;5.18;;;4.03;;
7444;SDS011;3764;48.126;11.594;2023-05-07T08:16:02;5.22;;;4.70;;
7444;SDS011;3764;48.126;11.594;2023-05-07T08:18:30;10.00;;;5.97;;
7444;SDS011;3764;48.126;11.594;2023-05-07T08:20:57;7.80;;;5.00;;
7444;SDS011;3764;48.126;11.594;2023-05-07T08:23:24;4.30;;;3.90;;
7444;SDS011;3764;48.126;11.594;2023-05-07T08:25:51;5.15;;;4.13;;
7444;SDS011;3764;48.126;11.594;2023-05-07T08:28:19;5.65;;;5.15;;
7444;SDS011;3764;48.126;11.594;2023-05-07T08:30:47;8.80;;;5.93;;
7444;SDS011;3764;48.126;11.594;2023-05-07T08:33:15;6.88;;;6.10;;
7444;SDS011;3764;48.126;11.594;2023-05-07T08:35:42;5.25;;;4.75;;
7444;SDS011;3764;48.126;11.594;2023-05-07T08:38:09;5.55;;;5.03;;
7444;SDS011;3764;48.126;11.594;2023-05-07T08:40:37;5.32;;;4.55;;
7444;SDS011;3764;48.126;11.594;2023-05-07T08:43:06;6.15;;;5.00;;
7444;SDS011;3764;48.126;11.594;2023-05-07T08:45:34;6.22;;;4.30;;
7444;SDS011;3764;48.126;11.594;2023-05-07T08:48:02;3.90;;;3.55;;
7444;SDS011;3764;48.126;11.594;2023-05-07T08:50:33;4.82;;;4.43;;
7444;SDS011;3764;48.126;11.594;2023-05-07T08:53:02;4.20;;;3.80;;
7444;SDS011;3764;48.126;11.594;2023-05-07T08:55:30;4.10;;;3.80;;
7444;SDS011;3764;48.126;11.594;2023-05-07T08:57:58;6.78;;;3.50;;
7444;SDS011;3764;48.126;11.594;2023-05-07T09:00:25;3.92;;;3.60;;
7444;SDS011;3764;48.126;11.594;2023-05-07T09:02:52;5.72;;;4.45;;
7444;SDS011;3764;48.126;11.594;2023-05-07T09:05:20;4.47;;;4.07;;
7444;SDS011;3764;48.126;11.594;2023-05-07T09:07:48;5.00;;;4.50;;
7444;SDS011;3764;48.126;11.594;2023-05-07T09:10:15;4.70;;;4.30;;
7444;SDS011;3764;48.126;11.594;2023-05-07T09:12:42;7.88;;;4.00;;
7444;SDS011;3764;48.126;11.594;2023-05-07T09:15:10;4.03;;;3.50;;
7444;SDS011;3764;48.126;11.594;2023-05-07T09:17:38;5.07;;;4.53;;
7444;SDS011;3764;48.126;11.594;2023-05-07T09:20:06;3.90;;;3.60;;
7444;SDS011;3764;48.126;11.594;2023-05-07T09:22:35;6.88;;;4.10;;
7444;SDS011;3764;48.126;11.594;2023-05-07T09:25:05;4.93;;;4.10;;
7444;SDS011;3764;48.126;11.594;2023-05-07T09:27:34;4.43;;;3.88;;
7444;SDS011;3764;48.126;11.594;2023-05-07T09:30:03;4.47;;;3.88;;
7444;SDS011;3764;48.126;11.594;2023-05-07T09:32:34;4.93;;;4.43;;
7444;SDS011;3764;48.126;11.594;2023-05-07T09:35:03;8.98;;;3.75;;
7444;SDS011;3764;48.126;11.594;2023-05-07T09:37:31;5.38;;;4.22;;
7444;SDS011;3764;48.126;11.594;2023-05-07T09:39:58;5.30;;;4.38;;
7444;SDS011;3764;48.126;11.594;2023-05-07T09:42:26;6.00;;;4.90;;
7444;SDS011;3764;48.126;11.594;2023-05-07T09:44:54;6.75;;;4.35;;
7444;SDS011;3764;48.126;11.594;2023-05-07T09:47:23;4.90;;;4.40;;
7444;SDS011;3764;48.126;11.594;2023-05-07T09:49:51;4.47;;;3.75;;
7444;SDS011;3764;48.126;11.594;2023-05-07T09:52:23;3.90;;;3.60;;
7444;SDS011;3764;48.126;11.594;2023-05-07T09:54:53;3.72;;;3.15;;
7444;SDS011;3764;48.126;11.594;2023-05-07T09:57:24;3.70;;;2.97;;
7444;SDS011;3764;48.126;11.594;2023-05-07T09:59:54;3.22;;;2.92;;
7444;SDS011;3764;48.126;11.594;2023-05-07T10:02:24;5.13;;;4.63;;
7444;SDS011;3764;48.126;11.594;2023-05-07T10:04:54;5.70;;;3.63;;
7444;SDS011;3764;48.126;11.594;2023-05-07T10:07:23;3.57;;;3.27;;
7444;SDS011;3764;48.126;11.594;2023-05-07T10:09:51;4.05;;;3.40;;
7444;SDS011;3764;48.126;11.594;2023-05-07T10:12:19;4.00;;;3.60;;
7444;SDS011;3764;48.126;11.594;2023-05-07T10:14:48;3.73;;;3.37;;
7444;SDS011;3764;48.126;11.594;2023-05-07T10:17:19;3.67;;;3.33;;
7444;SDS011;3764;48.126;11.594;2023-05-07T10:19:47;4.80;;;3.10;;
7444;SDS011;3764;48.126;11.594;2023-05-07T10:22:15;4.07;;;3.40;;
7444;SDS011;3764;48.126;11.594;2023-05-07T10:24:44;4.30;;;3.47;;
7444;SDS011;3764;48.126;11.594;2023-05-07T10:27:13;4.13;;;3.40;;
7444;SDS011;3764;48.126;11.594;2023-05-07T10:29:44;2.93;;;2.70;;
7444;SDS011;3764;48.126;11.594;2023-05-07T10:32:25;3.90;;;3.40;;
7444;SDS011;3764;48.126;11.594;2023-05-07T10:35:02;4.30;;;2.67;;
7444;SDS011;3764;48.126;11.594;2023-05-07T10:37:33;3.30;;;3.00;;
7444;SDS011;3764;48.126;11.594;2023-05-07T10:40:01;4.00;;;3.57;;
7444;SDS011;3764;48.126;11.594;2023-05-07T10:42:28;4.00;;;3.50;;
7444;SDS011;3764;48.126;11.594;2023-05-07T10:44:55;5.70;;;3.67;;
7444;SDS011;3764;48.126;11.594;2023-05-07T10:47:24;5.63;;;3.47;;
7444;SDS011;3764;48.126;11.594;2023-05-07T10:55:51;5.33;;;3.90;;
7444;SDS011;3764;48.126;11.594;2023-05-07T10:58:38;4.40;;;3.13;;
7444;SDS011;3764;48.126;11.594;2023-05-07T11:01:05;4.93;;;3.47;;
7444;SDS011;3764;48.126;11.594;2023-05-07T11:03:34;3.30;;;3.00;;
7444;SDS011;3764;48.126;11.594;2023-05-07T11:08:52;4.00;;;3.60;;
7444;SDS011;3764;48.126;11.594;2023-05-07T11:11:27;3.73;;;3.33;;
7444;SDS011;3764;48.126;11.594;2023-05-07T11:14:11;3.47;;;3.17;;
7444;SDS011;3764;48.126;11.594;2023-05-07T11:16:38;4.00;;;3.63;;
7444;SDS011;3764;48.126;11.594;2023-05-07T11:19:09;4.63;;;3.83;;
7444;SDS011;3764;48.126;11.594;2023-05-07T11:21:37;6.00;;;4.50;;
7444;SDS011;3764;48.126;11.594;2023-05-07T11:24:05;6.00;;;4.50;;
7444;SDS011;3764;48.126;11.594;2023-05-07T11:26:46;5.80;;;4.50;;
7444;SDS011;3764;48.126;11.594;2023-05-07T11:29:15;4.03;;;3.60;;
7444;SDS011;3764;48.126;11.594;2023-05-07T11:31:43;4.33;;;3.93;;
7444;SDS011;3764;48.126;11.594;2023-05-07T11:34:12;5.17;;;3.97;;
7444;SDS011;3764;48.126;11.594;2023-05-07T11:36:44;4.40;;;4.00;;
7444;SDS011;3764;48.126;11.594;2023-05-07T11:39:29;4.70;;;4.13;;
7444;SDS011;3764;48.126;11.594;2023-05-07T11:41:58;4.00;;;3.70;;
7444;SDS011;3764;48.126;11.594;2023-05-07T11:44:25;5.77;;;5.17;;
7444;SDS011;3764;48.126;11.594;2023-05-07T11:47:09;4.93;;;4.53;;
7444;SDS011;3764;48.126;11.594;2023-05-07T11:49:38;4.97;;;4.47;;
7444;SDS011;3764;48.126;11.594;2023-05-07T11:52:05;5.60;;;4.63;;
7444;SDS011;3764;48.126;11.594;2023-05-07T11:54:34;6.80;;;5.57;;
7444;SDS011;3764;48.126;11.594;2023-05-07T11:57:03;5.53;;;4.93;;
7444;SDS011;3764;48.126;11.594;2023-05-07T11:59:37;6.30;;;5.70;;
7444;SDS011;3764;48.126;11.594;2023-05-07T12:02:05;4.70;;;4.30;;
7444;SDS011;3764;48.126;11.594;2023-05-07T12:04:32;5.13;;;4.60;;
7444;SDS011;3764;48.126;11.594;2023-05-07T12:07:01;5.40;;;4.50;;
7444;SDS011;3764;48.126;11.594;2023-05-07T12:09:28;5.87;;;4.77;;
7444;SDS011;3764;48.126;11.594;2023-05-07T12:11:55;5.97;;;5.37;;
7444;SDS011;3764;48.126;11.594;2023-05-07T12:14:26;5.00;;;4.60;;
7444;SDS011;3764;48.126;11.594;2023-05-07T12:16:54;4.63;;;3.57;;
7444;SDS011;3764;48.126;11.594;2023-05-07T12:19:21;5.27;;;4.77;;
7444;SDS011;3764;48.126;11.594;2023-05-07T12:21:49;4.30;;;3.90;;
7444;SDS011;3764;48.126;11.594;2023-05-07T12:24:18;4.70;;;4.30;;
7444;SDS011;3764;48.126;11.594;2023-05-07T12:26:45;4.93;;;4.50;;
7444;SDS011;3764;48.126;11.594;2023-05-07T12:29:12;4.90;;;4.50;;
7444;SDS011;3764;48.126;11.594;2023-05-07T12:31:40;7.00;;;4.80;;
7444;SDS011;3764;48.126;11.594;2023-05-07T12:34:08;4.60;;;3.97;;
7444;SDS011;3764;48.126;11.594;2023-05-07T12:36:37;4.60;;;4.10;;
7444;SDS011;3764;48.126;11.594;2023-05-07T12:39:04;3.67;;;3.37;;
7444;SDS011;3764;48.126;11.594;2023-05-07T12:41:43;6.13;;;3.70;;
7444;SDS011;3764;48.126;11.594;2023-05-07T12:44:19;3.97;;;3.57;;
7444;SDS011;3764;48.126;11.594;2023-05-07T12:46:48;4.20;;;3.80;;
7444;SDS011;3764;48.126;11.594;2023-05-07T12:49:15;5.30;;;3.37;;
7444;SDS011;3764;48.126;11.594;2023-05-07T12:51:43;3.87;;;3.57;;
7444;SDS011;3764;48.126;11.594;2023-05-07T12:54:10;4.40;;;3.40;;
7444;SDS011;3764;48.126;11.594;2023-05-07T12:56:39;4.50;;;3.40;;
7444;SDS011;3764;48.126;11.594;2023-05-07T12:59:06;3.93;;;3.50;;
7444;SDS011;3764;48.126;11.594;2023-05-07T13:01:33;4.67;;;3.27;;
7444;SDS011;3764;48.126;11.594;2023-05-07T13:04:01;4.93;;;3.73;;
7444;SDS011;3764;48.126;11.594;2023-05-07T13:06:30;3.90;;;3.07;;
7444;SDS011;3764;48.126;11.594;2023-05-07T13:08:57;3.37;;;3.07;;
7444;SDS011;3764;48.126;11.594;2023-05-07T13:11:24;3.30;;;3.00;;
7444;SDS011;3764;48.126;11.594;2023-05-07T13:13:53;3.87;;;3.00;;
7444;SDS011;3764;48.126;11.594;2023-05-07T13:16:20;3.00;;;2.70;;
7444;SDS011;3764;48.126;11.594;2023-05-07T13:18:47;4.30;;;3.10;;
7444;SDS011;3764;48.126;11.594;2023-05-07T13:21:14;2.90;;;2.70;;
7444;SDS011;3764;48.126;11.594;2023-05-07T13:23:41;2.93;;;2.73;;
7444;SDS011;3764;48.126;11.594;2023-05-07T13:26:08;3.07;;;2.77;;
7444;SDS011;3764;48.126;11.594;2023-05-07T13:28:36;4.00;;;2.60;;
7444;SDS011;3764;48.126;11.594;2023-05-07T13:31:04;3.63;;;3.27;;
7444;SDS011;3764;48.126;11.594;2023-05-07T13:33:31;3.07;;;2.77;;
7444;SDS011;3764;48.126;11.594;2023-05-07T13:35:58;2.67;;;2.47;;
7444;SDS011;3764;48.126;11.594;2023-05-07T13:38:25;6.53;;;3.17;;
7444;SDS011;3764;48.126;11.594;2023-05-07T13:40:53;4.07;;;2.97;;
7444;SDS011;3764;48.126;11.594;2023-05-07T13:43:20;4.50;;;2.30;;
7444;SDS011;3764;48.126;11.594;2023-05-07T13:45:47;3.30;;;2.73;;
7444;SDS011;3764;48.126;11.594;2023-05-07T13:48:15;3.60;;;3.30;;
7444;SDS011;3764;48.126;11.594;2023-05-07T13:50:42;5.27;;;2.80;;
7444;SDS011;3764;48.126;11.594;2023-05-07T13:53:09;5.20;;;3.37;;
7444;SDS011;3764;48.126;11.594;2023-05-07T13:55:36;16.20;;;5.33;;
7444;SDS011;3764;48.126;11.594;2023-05-07T13:58:04;3.67;;;2.90;;
7444;SDS011;3764;48.126;11.594;2023-05-07T14:00:31;3.00;;;2.70;;
7444;SDS011;3764;48.126;11.594;2023-05-07T14:02:58;4.10;;;3.00;;
7444;SDS011;3764;48.126;11.594;2023-05-07T14:05:26;3.20;;;2.90;;
7444;SDS011;3764;48.126;11.594;2023-05-07T14:07:54;3.50;;;3.00;;
7444;SDS011;3764;48.126;11.594;2023-05-07T14:10:21;3.93;;;3.60;;
7444;SDS011;3764;48.126;11.594;2023-05-07T14:12:48;2.90;;;2.70;;
7444;SDS011;3764;48.126;11.594;2023-05-07T14:15:16;3.90;;;2.70;;
7444;SDS011;3764;48.126;11.594;2023-05-07T14:17:43;4.20;;;3.47;;
7444;SDS011;3764;48.126;11.594;2023-05-07T14:20:10;3.83;;;3.43;;
7444;SDS011;3764;48.126;11.594;2023-05-07T14:22:39;4.67;;;3.47;;
7444;SDS011;3764;48.126;11.594;2023-05-07T14:25:06;3.50;;;2.80;;
7444;SDS011;3764;48.126;11.594;2023-05-07T14:27:34;5.40;;;4.27;;
7444;SDS011;3764;48.126;11.594;2023-05-07T14:30:01;3.90;;;3.50;;
7444;SDS011;3764;48.126;11.594;2023-05-07T14:32:29;4.70;;;3.80;;
7444;SDS011;3764;48.126;11.594;2023-05-07T14:34:56;5.43;;;4.67;;
7444;SDS011;3764;48.126;11.594;2023-05-07T14:37:23;4.00;;;3.70;;
7444;SDS011;3764;48.126;11.594;2023-05-07T14:39:51;5.00;;;3.77;;
7444;SDS011;3764;48.126;11.594;2023-05-07T14:42:18;5.67;;;3.63;;
7444;SDS011;3764;48.126;11.594;2023-05-07T14:44:46;3.97;;;3.27;;
7444;SDS011;3764;48.126;11.594;2023-05-07T14:47:13;3.67;;;3.30;;
7444;SDS011;3764;48.126;11.594;2023-05-07T14:49:41;4.47;;;3.30;;
7444;SDS011;3764;48.126;11.594;2023-05-07T14:52:08;4.00;;;3.67;;
7444;SDS011;3764;48.126;11.594;2023-05-07T14:54:36;3.90;;;3.60;;
7444;SDS011;3764;48.126;11.594;2023-05-07T14:57:06;4.60;;;4.20;;
7444;SDS011;3764;48.126;11.594;2023-05-07T14:59:34;4.17;;;3.77;;
7444;SDS011;3764;48.126;11.594;2023-05-07T15:02:02;4.63;;;4.23;;
7444;SDS011;3764;48.126;11.594;2023-05-07T15:04:30;5.50;;;5.00;;
7444;SDS011;3764;48.126;11.594;2023-05-07T15:06:57;5.00;;;4.43;;
7444;SDS011;3764;48.126;11.594;2023-05-07T15:09:25;4.07;;;3.73;;
7444;SDS011;3764;48.126;11.594;2023-05-07T15:11:52;4.33;;;3.60;;
7444;SDS011;3764;48.126;11.594;2023-05-07T15:14:21;3.53;;;3.23;;